Time;durP1;ratioP1;P1;durP2;ratioP2;P2;SDS_P1;SDS_P2;PMS_P1;PMS_P2;Temp;Humidity;BMP_temperature;BMP_pressure;BME280_temperature;BME280_humidity;BME280_pressure;Samples;Min_cycle;Max_cycle;Signal;HPM_P1;HPM_P2
2023/07/23 00:00:24;;;;;;;12.05;7.03;;;15.00;99.90;;;;;;5071071;28;20093;-71
2023/07/23 00:02:50;;;;;;;13.70;7.35;;;15.00;99.90;;;;;;5078678;28;20543;-71
2023/07/23 00:05:16;;;;;;;13.02;7.35;;;15.00;99.90;;;;;;5080595;28;20402;-71
2023/07/23 00:07:42;;;;;;;15.70;7.28;;;15.00;99.90;;;;;;5078958;28;20047;-70
2023/07/23 00:10:11;;;;;;;13.82;6.97;;;15.00;99.90;;;;;;5081071;28;20711;-71
2023/07/23 00:12:37;;;;;;;14.55;7.30;;;14.90;99.90;;;;;;5081045;28;20065;-71
2023/07/23 00:15:04;;;;;;;14.07;7.03;;;14.90;99.90;;;;;;5090289;28;20055;-71
2023/07/23 00:17:29;;;;;;;11.35;6.50;;;14.90;99.90;;;;;;5089892;28;20046;-71
2023/07/23 00:19:55;;;;;;;13.23;6.47;;;14.80;99.90;;;;;;5087659;28;20479;-71
2023/07/23 00:22:21;;;;;;;12.65;6.75;;;14.80;99.90;;;;;;5078405;28;20032;-71
2023/07/23 00:24:47;;;;;;;13.80;6.68;;;14.90;99.90;;;;;;5090158;28;20043;-71
2023/07/23 00:27:16;;;;;;;14.95;6.68;;;14.80;99.90;;;;;;5075105;28;20528;-71
2023/07/23 00:29:41;;;;;;;15.27;6.72;;;14.80;99.90;;;;;;5089914;28;20487;-70
2023/07/23 00:32:08;;;;;;;13.27;6.65;;;14.80;99.90;;;;;;5087784;28;20051;-70
2023/07/23 00:34:34;;;;;;;13.10;7.05;;;14.80;99.90;;;;;;5087871;28;20032;-71
2023/07/23 00:37:00;;;;;;;14.27;6.78;;;14.80;99.90;;;;;;5085629;28;20050;-70
2023/07/23 00:39:26;;;;;;;12.52;6.93;;;14.80;99.90;;;;;;5069475;28;20129;-71
2023/07/23 00:41:52;;;;;;;11.18;6.45;;;14.80;99.90;;;;;;5083486;28;20866;-71
2023/07/23 00:44:18;;;;;;;11.68;7.18;;;14.70;99.90;;;;;;5087496;28;20815;-70
2023/07/23 00:46:44;;;;;;;14.15;7.03;;;14.70;99.90;;;;;;5087331;28;20044;-70
2023/07/23 00:49:11;;;;;;;11.50;6.57;;;14.70;99.90;;;;;;5087990;28;20396;-70
2023/07/23 00:51:38;;;;;;;10.55;6.90;;;14.70;99.90;;;;;;5081518;28;20055;-71
2023/07/23 00:54:04;;;;;;;14.02;7.22;;;14.70;99.90;;;;;;5085230;28;20079;-70
2023/07/23 00:56:31;;;;;;;13.00;8.05;;;14.70;99.90;;;;;;5084108;28;20078;-70
2023/07/23 00:58:57;;;;;;;14.27;6.88;;;14.70;99.90;;;;;;5085152;28;20064;-70
2023/07/23 01:01:23;;;;;;;13.50;7.18;;;14.70;99.90;;;;;;5085795;28;20040;-70
2023/07/23 01:03:52;;;;;;;14.98;6.65;;;14.70;99.90;;;;;;5076192;28;20536;-71
2023/07/23 01:06:19;;;;;;;12.48;7.75;;;14.70;99.90;;;;;;5084544;28;20606;-71
2023/07/23 01:08:47;;;;;;;14.18;7.65;;;14.70;99.90;;;;;;5085904;28;20386;-72
2023/07/23 01:11:13;;;;;;;16.67;8.23;;;14.70;99.90;;;;;;5087252;28;20054;-72
2023/07/23 01:13:39;;;;;;;13.13;7.88;;;14.70;99.90;;;;;;5086997;28;20111;-71
2023/07/23 01:16:08;;;;;;;13.02;7.40;;;14.70;99.90;;;;;;5086824;28;20042;-71
2023/07/23 01:18:39;;;;;;;13.80;7.85;;;14.70;99.90;;;;;;5071795;28;20039;-71
2023/07/23 01:21:05;;;;;;;;;;;14.70;99.90;;;;;;5077348;28;20048;-71
2023/07/23 01:23:31;;;;;;;13.38;7.32;;;14.70;99.90;;;;;;5078706;28;20004;-71
2023/07/23 01:25:57;;;;;;;14.75;7.93;;;14.70;99.90;;;;;;5085013;28;20070;-71
2023/07/23 01:28:24;;;;;;;12.43;7.00;;;14.70;99.90;;;;;;5086507;28;20040;-71
2023/07/23 01:30:49;;;;;;;14.40;7.00;;;14.70;99.90;;;;;;5086573;28;20044;-72
2023/07/23 01:33:16;;;;;;;11.93;7.57;;;14.70;99.90;;;;;;5084142;28;20046;-71
2023/07/23 01:35:46;;;;;;;12.98;6.75;;;14.70;99.90;;;;;;5084220;28;20043;-71
2023/07/23 01:38:13;;;;;;;13.55;7.03;;;14.70;99.90;;;;;;5086084;28;20580;-71
2023/07/23 01:40:41;;;;;;;13.05;7.10;;;14.70;99.90;;;;;;5084195;28;20044;-71
2023/07/23 01:43:06;;;;;;;13.10;6.35;;;14.70;99.90;;;;;;5071457;28;20044;-72
2023/07/23 01:45:32;;;;;;;12.43;6.72;;;14.70;99.90;;;;;;5088195;28;20401;-72
2023/07/23 01:47:58;;;;;;;11.90;6.05;;;14.70;99.90;;;;;;5088094;28;20047;-72
2023/07/23 01:50:24;;;;;;;14.52;7.13;;;14.70;99.90;;;;;;5088809;28;20148;-72
2023/07/23 01:52:50;;;;;;;12.27;6.82;;;14.60;99.90;;;;;;5086107;28;20044;-71
2023/07/23 01:55:16;;;;;;;11.75;6.68;;;14.70;99.90;;;;;;5087664;28;20409;-72
2023/07/23 01:57:41;;;;;;;13.05;6.38;;;14.70;99.90;;;;;;5087161;28;20055;-72
2023/07/23 02:00:08;;;;;;;12.05;6.57;;;14.70;99.90;;;;;;5088692;28;20079;-72
2023/07/23 02:02:34;;;;;;;12.20;7.05;;;14.70;99.90;;;;;;5087453;28;20123;-72
2023/07/23 02:05:00;;;;;;;12.77;6.80;;;14.70;99.90;;;;;;5088578;28;20048;-71
2023/07/23 02:07:26;;;;;;;12.25;5.93;;;14.70;99.90;;;;;;5087490;28;20040;-72
2023/07/23 02:09:51;;;;;;;11.80;6.22;;;14.70;99.90;;;;;;5088579;28;20588;-71
2023/07/23 02:12:17;;;;;;;11.50;6.32;;;14.70;99.90;;;;;;5087610;28;20400;-72
2023/07/23 02:14:43;;;;;;;14.38;7.05;;;14.70;99.90;;;;;;5087379;28;20035;-71
2023/07/23 02:17:09;;;;;;;10.85;6.57;;;14.70;99.90;;;;;;5069398;28;20044;-72
2023/07/23 02:19:36;;;;;;;12.95;6.30;;;14.70;99.90;;;;;;5088417;28;20087;-72
2023/07/23 02:22:03;;;;;;;11.50;6.32;;;14.60;99.90;;;;;;5088039;28;20048;-72
2023/07/23 02:24:29;;;;;;;11.10;6.38;;;14.60;99.90;;;;;;5084843;28;20055;-72
2023/07/23 02:26:55;;;;;;;11.55;6.32;;;14.70;99.90;;;;;;5086227;28;20484;-71
2023/07/23 02:29:21;;;;;;;14.05;6.10;;;14.60;99.90;;;;;;5087244;28;20727;-72
2023/07/23 02:31:46;;;;;;;14.70;6.70;;;14.60;99.90;;;;;;5087734;28;20050;-72
2023/07/23 02:34:12;;;;;;;11.93;6.32;;;14.60;99.90;;;;;;5088232;28;20052;-72
2023/07/23 02:36:38;;;;;;;13.20;6.82;;;14.60;99.90;;;;;;5087215;28;20051;-71
2023/07/23 02:39:04;;;;;;;14.20;6.95;;;14.60;99.90;;;;;;5085169;28;20040;-72
2023/07/23 02:41:29;;;;;;;12.77;6.38;;;14.60;99.90;;;;;;5087592;28;20040;-72
2023/07/23 02:43:55;;;;;;;11.90;5.88;;;14.60;99.90;;;;;;5087522;28;20137;-72
2023/07/23 02:46:21;;;;;;;11.95;6.60;;;14.60;99.90;;;;;;5086713;28;20076;-71
2023/07/23 02:48:46;;;;;;;11.38;6.55;;;14.60;99.90;;;;;;5085555;28;20036;-70
2023/07/23 02:51:12;;;;;;;14.15;6.47;;;14.70;99.90;;;;;;5083023;28;20050;-71
2023/07/23 02:53:39;;;;;;;13.65;7.10;;;14.60;99.90;;;;;;5084604;28;20791;-70
2023/07/23 02:56:05;;;;;;;10.73;6.10;;;14.60;99.90;;;;;;5087018;28;20048;-71
2023/07/23 02:58:31;;;;;;;11.88;6.30;;;14.70;99.90;;;;;;5086118;28;20039;-71
2023/07/23 03:00:57;;;;;;;11.38;6.13;;;14.70;99.90;;;;;;5087206;28;20040;-71
2023/07/23 03:03:23;;;;;;;12.50;7.20;;;14.70;99.90;;;;;;5083496;28;20464;-71
2023/07/23 03:05:49;;;;;;;12.90;6.85;;;14.60;99.90;;;;;;5084670;28;20047;-70
2023/07/23 03:08:14;;;;;;;10.85;6.60;;;14.70;99.90;;;;;;5086278;28;20051;-70
2023/07/23 03:10:41;;;;;;;13.07;6.32;;;14.70;99.90;;;;;;5087192;28;20044;-71
2023/07/23 03:13:07;;;;;;;13.98;6.35;;;14.60;99.90;;;;;;5085568;28;20504;-69
2023/07/23 03:15:34;;;;;;;12.20;6.40;;;14.60;99.90;;;;;;5079744;28;20826;-71
2023/07/23 03:18:00;;;;;;;13.68;6.47;;;14.60;99.90;;;;;;5070084;28;20047;-70
2023/07/23 03:20:26;;;;;;;13.13;6.90;;;14.60;99.90;;;;;;5090794;28;20508;-71
2023/07/23 03:22:52;;;;;;;13.40;6.60;;;14.60;99.90;;;;;;5091410;28;20050;-71
2023/07/23 03:25:18;;;;;;;11.43;6.05;;;14.60;99.90;;;;;;5076118;28;20116;-70
2023/07/23 03:27:44;;;;;;;12.30;6.20;;;14.60;99.90;;;;;;5091154;28;20098;-71
2023/07/23 03:30:11;;;;;;;12.52;6.53;;;14.60;99.90;;;;;;5091293;28;20527;-71
2023/07/23 03:32:37;;;;;;;11.07;6.32;;;14.60;99.90;;;;;;5090254;28;20044;-70
2023/07/23 03:35:03;;;;;;;9.85;6.20;;;14.60;99.90;;;;;;5089779;28;20036;-70
2023/07/23 03:37:29;;;;;;;11.40;6.40;;;14.60;99.90;;;;;;5091327;28;20036;-70
2023/07/23 03:39:55;;;;;;;12.98;6.63;;;14.60;99.90;;;;;;5088703;28;20044;-70
2023/07/23 03:42:21;;;;;;;14.77;7.22;;;14.60;99.90;;;;;;5072876;28;20075;-70
2023/07/23 03:44:46;;;;;;;11.10;6.70;;;14.60;99.90;;;;;;5070968;28;20048;-70
2023/07/23 03:47:14;;;;;;;14.88;8.18;;;14.60;99.90;;;;;;5071016;28;20229;-70
2023/07/23 03:49:40;;;;;;;11.65;6.45;;;14.60;99.90;;;;;;5085435;28;20048;-70
2023/07/23 03:52:07;;;;;;;13.73;7.05;;;14.60;99.90;;;;;;5090778;28;20044;-70
2023/07/23 03:54:34;;;;;;;13.02;7.53;;;14.60;99.90;;;;;;5091025;28;20048;-70
2023/07/23 03:57:00;;;;;;;12.70;7.32;;;14.60;99.90;;;;;;5090759;28;20127;-71
2023/07/23 03:59:34;;;;;;;11.65;7.65;;;14.60;99.90;;;;;;5089498;28;20053;-70
2023/07/23 04:02:00;;;;;;;15.02;7.80;;;14.60;99.90;;;;;;5086507;28;20066;-70
2023/07/23 04:04:26;;;;;;;13.80;7.88;;;14.60;99.90;;;;;;5088912;28;20048;-70
2023/07/23 04:06:52;;;;;;;12.30;7.22;;;14.60;99.90;;;;;;5088380;28;20055;-70
2023/07/23 04:09:19;;;;;;;12.60;7.57;;;14.60;99.90;;;;;;5088601;28;20040;-70
2023/07/23 04:11:45;;;;;;;14.50;7.57;;;14.60;99.90;;;;;;5089552;28;20040;-70
2023/07/23 04:14:11;;;;;;;12.45;7.25;;;14.60;99.90;;;;;;5089402;28;20093;-70
2023/07/23 04:16:36;;;;;;;13.93;7.82;;;14.60;99.90;;;;;;5072253;28;20569;-70
2023/07/23 04:19:02;;;;;;;13.35;8.02;;;14.60;99.90;;;;;;5070635;28;20078;-70
2023/07/23 04:21:28;;;;;;;13.20;7.43;;;14.60;99.90;;;;;;5073782;28;20625;-70
2023/07/23 04:24:03;;;;;;;13.40;7.32;;;14.60;99.90;;;;;;5088511;28;20497;-70
2023/07/23 04:26:30;;;;;;;13.88;7.30;;;14.60;99.90;;;;;;5087175;28;20043;-70
2023/07/23 04:28:56;;;;;;;12.60;7.57;;;14.60;99.90;;;;;;5088372;28;20040;-70
2023/07/23 04:31:22;;;;;;;14.63;7.10;;;14.60;99.90;;;;;;5087064;28;20043;-70
2023/07/23 04:33:48;;;;;;;11.88;6.85;;;14.60;99.90;;;;;;5086652;28;20044;-70
2023/07/23 04:36:15;;;;;;;14.18;7.57;;;14.60;99.90;;;;;;5088119;28;20174;-70
2023/07/23 04:38:42;;;;;;;13.85;7.57;;;14.60;99.90;;;;;;5087161;28;20116;-70
2023/07/23 04:41:10;;;;;;;13.60;7.35;;;14.60;99.90;;;;;;5086959;28;20043;-70
2023/07/23 04:43:37;;;;;;;15.63;7.85;;;14.60;99.90;;;;;;5087726;28;20044;-70
2023/07/23 04:46:04;;;;;;;14.00;7.43;;;14.60;99.90;;;;;;5088751;28;20054;-70
2023/07/23 04:48:34;;;;;;;15.65;7.65;;;14.60;99.90;;;;;;5079284;28;20040;-69
2023/07/23 04:51:02;;;;;;;11.27;7.00;;;14.60;99.90;;;;;;5079476;28;20046;-69
2023/07/23 04:53:28;;;;;;;11.98;7.22;;;14.50;99.90;;;;;;5089024;28;20047;-70
2023/07/23 04:55:56;;;;;;;12.77;7.80;;;14.70;99.90;;;;;;5089190;28;20518;-69
2023/07/23 04:58:23;;;;;;;11.57;6.85;;;14.60;99.90;;;;;;5082035;28;20054;-70
2023/07/23 05:00:49;;;;;;;12.00;7.68;;;14.60;99.90;;;;;;5086726;28;20040;-70
2023/07/23 05:03:15;;;;;;;13.43;7.07;;;14.60;99.90;;;;;;5087065;28;20521;-70
2023/07/23 05:05:45;;;;;;;13.15;7.68;;;14.60;99.90;;;;;;5088651;28;20491;-70
2023/07/23 05:08:11;;;;;;;12.52;7.10;;;14.70;99.90;;;;;;5088090;28;20036;-70
2023/07/23 05:10:38;;;;;;;16.95;7.28;;;14.70;99.90;;;;;;5088091;28;20047;-70
2023/07/23 05:13:04;;;;;;;11.88;6.90;;;14.70;99.90;;;;;;5088687;28;20040;-70
2023/07/23 05:15:29;;;;;;;12.30;6.80;;;14.60;99.90;;;;;;5085475;28;20052;-70
2023/07/23 05:17:55;;;;;;;12.35;6.40;;;14.60;99.90;;;;;;5087745;28;20139;-70
2023/07/23 05:20:21;;;;;;;11.25;6.70;;;14.60;99.90;;;;;;5087963;28;20044;-70
2023/07/23 05:22:46;;;;;;;11.45;7.07;;;14.60;99.90;;;;;;5087431;28;20144;-70
2023/07/23 05:25:12;;;;;;;13.05;6.80;;;14.60;99.90;;;;;;5087059;28;20051;-70
2023/07/23 05:27:38;;;;;;;14.05;7.38;;;14.50;99.90;;;;;;5088252;28;20089;-70
2023/07/23 05:30:05;;;;;;;15.23;7.18;;;14.60;99.90;;;;;;5084431;28;20610;-70
2023/07/23 05:32:31;;;;;;;12.50;7.68;;;14.60;99.90;;;;;;5081468;28;20045;-70
2023/07/23 05:34:57;;;;;;;12.60;7.72;;;14.60;99.90;;;;;;5082018;28;20060;-70
2023/07/23 05:37:24;;;;;;;13.93;7.70;;;14.60;99.90;;;;;;5072256;28;20454;-69
2023/07/23 05:39:52;;;;;;;13.95;7.78;;;14.60;99.90;;;;;;5088370;28;20071;-70
2023/07/23 05:42:18;;;;;;;13.57;8.18;;;14.60;99.90;;;;;;5079327;28;20051;-70
2023/07/23 05:44:44;;;;;;;15.13;8.20;;;14.60;99.90;;;;;;5086556;28;20036;-70
2023/07/23 05:47:09;;;;;;;14.23;7.95;;;14.70;99.90;;;;;;5075171;28;20101;-70
2023/07/23 05:49:35;;;;;;;18.38;8.52;;;14.70;99.90;;;;;;5079399;28;20040;-70
2023/07/23 05:52:01;;;;;;;16.83;8.02;;;14.70;99.90;;;;;;5083587;28;20055;-70
2023/07/23 05:54:27;;;;;;;14.05;8.55;;;14.70;99.90;;;;;;5082399;28;20040;-70
2023/07/23 05:56:53;;;;;;;20.27;9.40;;;14.70;99.90;;;;;;5084443;28;20055;-69
2023/07/23 05:59:19;;;;;;;16.48;8.95;;;14.70;99.90;;;;;;5084536;28;20036;-70
2023/07/23 06:01:45;;;;;;;19.48;9.48;;;14.70;99.90;;;;;;5085056;28;20694;-70
2023/07/23 06:04:11;;;;;;;18.30;8.73;;;14.70;99.90;;;;;;5084874;28;20082;-70
2023/07/23 06:06:36;;;;;;;20.10;8.90;;;14.70;99.90;;;;;;5085334;28;20048;-70
2023/07/23 06:09:03;;;;;;;15.82;8.70;;;14.70;99.90;;;;;;5084758;28;20035;-70
2023/07/23 06:11:30;;;;;;;18.10;9.35;;;14.70;99.90;;;;;;5084975;28;20101;-70
2023/07/23 06:13:55;;;;;;;13.85;9.23;;;14.80;99.90;;;;;;5084675;28;20048;-71
2023/07/23 06:16:21;;;;;;;16.70;8.77;;;14.80;99.90;;;;;;5085733;28;20537;-70
2023/07/23 06:18:47;;;;;;;18.73;9.07;;;14.80;99.90;;;;;;5075604;28;21195;-70
2023/07/23 06:21:12;;;;;;;16.50;8.82;;;14.80;99.90;;;;;;5080056;28;20101;-71
2023/07/23 06:23:38;;;;;;;14.07;8.80;;;14.80;99.90;;;;;;5082978;28;20040;-70
2023/07/23 06:26:04;;;;;;;15.35;9.15;;;14.80;99.90;;;;;;5081413;28;20048;-70
2023/07/23 06:28:31;;;;;;;18.10;9.73;;;14.80;99.90;;;;;;5080619;28;20050;-70
2023/07/23 06:30:57;;;;;;;15.07;9.30;;;14.80;99.90;;;;;;5078532;28;20488;-70
2023/07/23 06:33:22;;;;;;;16.67;9.10;;;14.90;99.90;;;;;;5071799;28;20044;-70
2023/07/23 06:35:49;;;;;;;13.18;8.50;;;14.90;99.90;;;;;;5075625;28;20044;-70
2023/07/23 06:38:15;;;;;;;14.95;9.68;;;14.90;99.90;;;;;;5079401;28;20043;-71
2023/07/23 06:40:50;;;;;;;16.48;10.07;;;14.90;99.90;;;;;;5075077;28;20051;-71
2023/07/23 06:43:17;;;;;;;17.13;9.38;;;15.00;99.90;;;;;;5077184;28;20040;-70
2023/07/23 06:45:44;;;;;;;15.38;9.13;;;15.00;99.90;;;;;;5081864;28;20048;-70
2023/07/23 06:48:11;;;;;;;16.58;9.48;;;15.10;99.90;;;;;;5077033;28;20040;-69
2023/07/23 06:50:37;;;;;;;16.95;9.52;;;15.10;99.90;;;;;;5082036;28;20093;-69
2023/07/23 06:53:03;;;;;;;16.15;9.73;;;15.10;99.90;;;;;;5080204;28;20120;-71
2023/07/23 06:55:28;;;;;;;15.48;9.38;;;15.10;99.90;;;;;;5080840;28;20044;-71
2023/07/23 06:57:54;;;;;;;17.42;8.70;;;15.20;99.90;;;;;;5074488;28;20382;-70
2023/07/23 07:00:20;;;;;;;18.20;10.27;;;15.20;99.90;;;;;;5081792;28;20090;-70
2023/07/23 07:02:46;;;;;;;17.65;9.85;;;15.20;99.90;;;;;;5078470;28;20036;-69
2023/07/23 07:05:12;;;;;;;18.02;9.48;;;15.20;99.90;;;;;;5079140;28;20051;-70
2023/07/23 07:07:38;;;;;;;15.35;9.13;;;15.20;99.90;;;;;;5075196;28;20113;-70
2023/07/23 07:10:07;;;;;;;16.65;9.63;;;15.30;99.90;;;;;;5080863;28;20072;-70
2023/07/23 07:12:33;;;;;;;15.55;8.57;;;15.30;99.90;;;;;;5074558;28;20105;-71
2023/07/23 07:14:58;;;;;;;15.70;9.02;;;15.30;99.90;;;;;;5080012;28;20044;-70
2023/07/23 07:17:24;;;;;;;15.05;8.93;;;15.30;99.90;;;;;;5070998;28;20042;-70
2023/07/23 07:19:50;;;;;;;19.55;10.13;;;15.30;99.90;;;;;;5081591;28;20035;-70
2023/07/23 07:22:16;;;;;;;17.40;9.70;;;15.30;99.90;;;;;;5079430;28;20047;-70
2023/07/23 07:24:42;;;;;;;14.95;9.38;;;15.30;99.90;;;;;;5081741;28;20780;-71
2023/07/23 07:27:10;;;;;;;22.33;9.98;;;15.30;99.90;;;;;;5082079;28;20126;-70
2023/07/23 07:29:43;;;;;;;17.02;10.40;;;15.40;99.90;;;;;;5078689;28;20036;-70
2023/07/23 07:32:09;;;;;;;17.48;9.88;;;15.30;99.90;;;;;;5072634;28;20071;-70
2023/07/23 07:34:35;;;;;;;16.33;10.00;;;15.40;99.90;;;;;;5073232;28;20772;-70
2023/07/23 07:37:01;;;;;;;16.73;9.52;;;15.40;99.90;;;;;;5073288;28;20040;-71
2023/07/23 07:39:26;;;;;;;18.10;10.05;;;15.40;99.90;;;;;;5077322;28;20068;-71
2023/07/23 07:41:53;;;;;;;18.67;11.05;;;15.40;99.90;;;;;;5079980;28;20044;-70
2023/07/23 07:44:20;;;;;;;17.45;10.45;;;15.40;99.90;;;;;;5078596;28;20043;-70
2023/07/23 07:46:46;;;;;;;20.23;11.07;;;15.40;99.90;;;;;;5074301;28;20101;-70
2023/07/23 07:49:11;;;;;;;17.98;9.20;;;15.50;99.90;;;;;;5078399;28;20694;-70
2023/07/23 07:51:39;;;;;;;18.25;9.75;;;15.50;99.90;;;;;;5061925;28;20039;-70
2023/07/23 07:54:05;;;;;;;20.00;10.07;;;15.50;99.90;;;;;;5080960;28;20130;-70
2023/07/23 07:56:31;;;;;;;18.30;9.95;;;15.50;99.90;;;;;;5076152;28;20123;-69
2023/07/23 07:58:57;;;;;;;18.73;9.82;;;15.50;99.90;;;;;;5080470;28;20080;-71
2023/07/23 08:01:23;;;;;;;17.02;10.57;;;15.50;99.90;;;;;;5079834;28;20502;-72
2023/07/23 08:03:49;;;;;;;16.92;10.13;;;15.60;99.90;;;;;;5080693;28;20052;-72
2023/07/23 08:06:16;;;;;;;15.50;9.65;;;15.60;99.90;;;;;;5085206;28;20075;-71
2023/07/23 08:08:44;;;;;;;20.48;10.77;;;15.60;99.90;;;;;;5084549;28;20540;-72
2023/07/23 08:11:10;;;;;;;19.08;10.77;;;15.60;99.90;;;;;;5084462;28;20515;-72
2023/07/23 08:13:39;;;;;;;18.85;10.63;;;15.70;99.90;;;;;;5086291;28;20052;-72
2023/07/23 08:16:05;;;;;;;18.13;10.20;;;15.60;99.90;;;;;;5085010;28;20093;-72
2023/07/23 08:18:32;;;;;;;17.45;9.80;;;15.70;99.90;;;;;;5083762;28;20873;-71
2023/07/23 08:20:58;;;;;;;18.30;10.20;;;15.70;99.90;;;;;;5087538;28;20058;-72
2023/07/23 08:23:27;;;;;;;15.52;9.18;;;15.70;99.90;;;;;;5087078;28;20085;-71
2023/07/23 08:25:59;;;;;;;16.08;9.88;;;15.80;99.90;;;;;;5085165;28;20036;-72
2023/07/23 08:28:29;;;;;;;15.90;10.23;;;15.70;99.90;;;;;;5086316;28;20592;-72
2023/07/23 08:31:00;;;;;;;16.05;10.35;;;15.80;99.90;;;;;;5082869;28;20113;-72
2023/07/23 08:33:28;;;;;;;17.90;11.30;;;15.70;99.90;;;;;;5076678;28;20619;-72
2023/07/23 08:35:55;;;;;;;19.23;12.80;;;15.70;99.90;;;;;;5058238;28;20048;-72
2023/07/23 08:38:22;;;;;;;16.35;12.20;;;15.80;99.90;;;;;;5075377;28;20036;-72
2023/07/23 08:41:00;;;;;;;17.85;12.85;;;15.80;99.90;;;;;;5085891;28;20043;-72
2023/07/23 08:43:44;;;;;;;15.18;11.82;;;15.80;99.90;;;;;;5085132;28;20047;-72
2023/07/23 08:46:21;;;;;;;17.23;12.52;;;15.80;99.90;;;;;;5079518;28;20040;-72
2023/07/23 08:48:56;;;;;;;16.05;11.68;;;15.80;99.90;;;;;;5080572;28;20047;-72
2023/07/23 08:51:31;;;;;;;18.10;12.13;;;15.80;99.90;;;;;;5076680;28;20040;-72
2023/07/23 08:53:57;;;;;;;18.05;11.50;;;15.80;99.90;;;;;;5084807;28;20044;-73
2023/07/23 08:56:23;;;;;;;15.43;10.63;;;15.80;99.90;;;;;;5084832;28;20908;-72
2023/07/23 08:58:50;;;;;;;16.98;11.25;;;15.80;99.90;;;;;;5081236;28;20060;-71
2023/07/23 09:01:16;;;;;;;18.02;11.13;;;15.80;99.90;;;;;;5085266;28;20043;-71
2023/07/23 09:03:43;;;;;;;18.23;11.05;;;15.80;99.90;;;;;;5085345;28;20044;-72
2023/07/23 09:06:10;;;;;;;17.73;11.07;;;15.90;99.90;;;;;;5060076;28;20051;-73
2023/07/23 09:08:36;;;;;;;14.63;10.25;;;15.90;99.90;;;;;;5076723;28;20093;-73
2023/07/23 09:11:05;;;;;;;16.23;10.70;;;15.80;99.90;;;;;;5081528;28;20479;-71
2023/07/23 09:13:35;;;;;;;15.13;10.25;;;15.90;99.90;;;;;;5081603;28;20488;-71
2023/07/23 09:16:01;;;;;;;15.88;11.13;;;15.80;99.90;;;;;;5071832;28;20835;-71
2023/07/23 09:18:27;;;;;;;14.75;10.93;;;15.80;99.90;;;;;;5079450;28;20123;-72
2023/07/23 09:20:53;;;;;;;16.00;11.90;;;15.80;99.90;;;;;;5081121;28;20104;-71
2023/07/23 09:23:19;;;;;;;15.32;10.43;;;15.90;99.90;;;;;;5082794;28;20542;-71
2023/07/23 09:25:46;;;;;;;17.20;10.73;;;15.90;99.90;;;;;;5081002;28;20209;-73
2023/07/23 09:28:24;;;;;;;15.57;10.98;;;15.90;99.90;;;;;;5083530;28;20426;-71
2023/07/23 09:30:54;;;;;;;16.25;11.20;;;15.90;99.90;;;;;;5074902;28;20127;-71
2023/07/23 09:33:20;;;;;;;17.50;10.77;;;15.90;99.90;;;;;;5082636;28;20079;-71
2023/07/23 09:35:46;;;;;;;16.58;10.57;;;15.90;99.90;;;;;;5079189;28;20068;-71
2023/07/23 09:38:16;;;;;;;13.60;10.25;;;15.90;99.90;;;;;;5075350;28;20044;-71
2023/07/23 09:40:42;;;;;;;16.10;11.25;;;15.90;99.90;;;;;;5079088;28;20075;-71
2023/07/23 09:43:08;;;;;;;13.95;9.80;;;15.90;99.90;;;;;;5073210;28;20634;-72
2023/07/23 09:45:43;;;;;;;16.02;9.60;;;15.90;99.90;;;;;;5079442;28;20089;-72
2023/07/23 09:48:13;;;;;;;15.15;10.57;;;16.00;99.90;;;;;;5078973;28;20425;-72
2023/07/23 09:50:39;;;;;;;14.63;10.73;;;16.00;99.90;;;;;;5076627;28;20036;-71
2023/07/23 09:53:09;;;;;;;18.67;11.52;;;16.00;99.90;;;;;;5061582;28;20044;-72
2023/07/23 09:55:36;;;;;;;18.60;10.95;;;16.00;99.90;;;;;;5082146;28;20040;-73
2023/07/23 09:58:05;;;;;;;21.48;10.82;;;16.00;99.90;;;;;;5082598;28;20069;-73
2023/07/23 10:00:33;;;;;;;20.60;11.52;;;16.00;99.90;;;;;;5076041;28;20051;-72
2023/07/23 10:03:00;;;;;;;18.63;12.32;;;16.00;99.90;;;;;;5078414;28;20117;-73
2023/07/23 10:05:26;;;;;;;16.13;11.15;;;16.00;99.90;;;;;;5086825;28;20052;-72
2023/07/23 10:07:53;;;;;;;17.05;10.73;;;16.00;99.90;;;;;;5082643;28;20162;-72
2023/07/23 10:10:19;;;;;;;16.20;10.88;;;16.00;99.90;;;;;;5074161;28;20040;-73
2023/07/23 10:12:46;;;;;;;15.82;10.77;;;16.10;99.90;;;;;;5079715;28;20040;-74
2023/07/23 10:15:12;;;;;;;16.20;10.57;;;16.00;99.90;;;;;;5083414;28;20040;-73
2023/07/23 10:17:46;;;;;;;18.23;12.00;;;16.10;99.90;;;;;;5082537;28;20272;-73
2023/07/23 10:20:16;;;;;;;16.75;10.60;;;16.10;99.90;;;;;;5072247;28;20065;-73
2023/07/23 10:22:45;;;;;;;16.15;10.23;;;16.10;99.90;;;;;;5077687;28;20067;-73
2023/07/23 10:25:37;;;;;;;18.10;11.27;;;16.10;99.90;;;;;;5071453;28;20063;-73
2023/07/23 10:28:05;;;;;;;15.18;9.90;;;16.10;99.90;;;;;;5070868;28;20052;-73
2023/07/23 10:30:33;;;;;;;18.80;10.18;;;16.10;99.90;;;;;;5078948;28;20040;-73
2023/07/23 10:33:14;;;;;;;18.88;10.07;;;16.10;99.90;;;;;;5056436;28;20048;-73
2023/07/23 10:35:58;;;;;;;18.48;10.50;;;16.10;99.90;;;;;;5065567;28;20043;-73
2023/07/23 10:38:33;;;;;;;16.92;10.15;;;16.20;99.90;;;;;;5067782;28;20095;-73
2023/07/23 10:41:00;;;;;;;19.05;10.32;;;16.20;99.90;;;;;;5077912;28;20526;-73
2023/07/23 10:43:40;;;;;;;16.77;10.23;;;16.20;99.90;;;;;;5080601;28;20726;-72
2023/07/23 10:46:11;;;;;;;16.45;9.95;;;16.20;99.90;;;;;;5075281;28;20054;-72
2023/07/23 10:48:52;;;;;;;15.93;10.43;;;16.20;99.90;;;;;;5055844;28;20412;-73
2023/07/23 10:51:23;;;;;;;16.30;9.57;;;16.30;99.90;;;;;;5081173;28;20044;-73
2023/07/23 10:54:02;;;;;;;15.32;9.20;;;16.20;99.90;;;;;;5081464;28;20161;-72
2023/07/23 10:56:34;;;;;;;14.55;9.88;;;16.30;99.90;;;;;;5072285;28;20093;-73
2023/07/23 10:59:14;;;;;;;16.13;10.27;;;16.30;99.90;;;;;;5067638;28;20052;-73
2023/07/23 11:01:42;;;;;;;17.20;10.40;;;16.30;99.90;;;;;;5078845;28;20606;-72
2023/07/23 11:04:22;;;;;;;13.95;9.35;;;16.30;99.90;;;;;;5077289;28;20051;-72
2023/07/23 11:07:04;;;;;;;14.20;9.97;;;16.30;99.90;;;;;;5074603;28;20043;-73
2023/07/23 11:09:36;;;;;;;14.45;9.88;;;16.40;99.90;;;;;;5074387;28;20595;-72
2023/07/23 11:12:05;;;;;;;;;;;16.40;99.90;;;;;;5071014;28;20059;-73
2023/07/23 11:14:31;;;;;;;17.08;9.15;;;16.40;99.90;;;;;;5069604;28;19959;-72
2023/07/23 11:16:59;;;;;;;15.32;9.25;;;16.40;99.90;;;;;;5067588;28;20684;-72
2023/07/23 11:19:26;;;;;;;17.45;10.65;;;16.40;99.90;;;;;;5075963;28;20131;-70
2023/07/23 11:21:57;;;;;;;18.67;9.75;;;16.50;99.90;;;;;;5069003;28;20106;-71
2023/07/23 11:24:27;;;;;;;13.52;9.70;;;16.50;99.90;;;;;;5068682;28;20040;-72
2023/07/23 11:26:56;;;;;;;15.63;9.50;;;16.50;99.90;;;;;;5076889;28;20044;-72
2023/07/23 11:29:24;;;;;;;13.13;9.35;;;16.50;99.90;;;;;;5072138;28;20516;-72
2023/07/23 11:31:53;;;;;;;16.38;10.27;;;16.50;99.90;;;;;;5074607;28;20044;-71
2023/07/23 11:34:21;;;;;;;14.95;9.90;;;16.60;99.90;;;;;;5074939;28;20094;-73
2023/07/23 11:36:52;;;;;;;17.00;10.05;;;16.60;99.90;;;;;;5070811;28;20051;-72
2023/07/23 11:39:19;;;;;;;13.95;9.15;;;16.50;99.90;;;;;;5079543;28;21544;-72
2023/07/23 11:41:45;;;;;;;15.20;9.77;;;16.50;99.90;;;;;;5072627;28;20044;-72
2023/07/23 11:44:11;;;;;;;14.45;9.02;;;16.60;99.90;;;;;;5083322;28;20059;-71
2023/07/23 11:46:41;;;;;;;14.45;9.13;;;16.60;99.90;;;;;;5082499;28;20044;-71
2023/07/23 11:49:09;;;;;;;13.65;9.45;;;16.60;99.90;;;;;;5080712;28;20044;-71
2023/07/23 11:51:37;;;;;;;15.68;9.65;;;16.60;99.90;;;;;;5077764;28;20052;-73
2023/07/23 11:54:21;;;;;;;16.30;9.70;;;16.60;99.90;;;;;;5077997;28;20125;-72
2023/07/23 11:56:46;;;;;;;15.77;9.40;;;16.60;99.90;;;;;;5079542;28;20400;-72
2023/07/23 11:59:14;;;;;;;15.30;8.63;;;16.60;99.90;;;;;;5080955;28;20044;-72
2023/07/23 12:01:41;;;;;;;13.30;9.52;;;16.60;99.90;;;;;;5079413;28;20176;-72
2023/07/23 12:04:08;;;;;;;15.55;9.27;;;16.60;99.90;;;;;;5077600;28;20036;-72
2023/07/23 12:06:36;;;;;;;17.10;9.10;;;16.60;99.90;;;;;;5076882;28;20054;-71
2023/07/23 12:09:07;;;;;;;13.52;8.48;;;16.60;99.90;;;;;;5083583;28;20189;-71
2023/07/23 12:11:33;;;;;;;12.95;8.75;;;16.60;99.90;;;;;;5072113;28;20109;-72
2023/07/23 12:14:06;;;;;;;14.60;9.27;;;16.70;99.90;;;;;;5073194;28;21126;-72
2023/07/23 12:16:51;;;;;;;15.43;8.77;;;16.70;99.90;;;;;;5076317;28;20122;-72
2023/07/23 12:19:19;;;;;;;11.40;7.88;;;16.70;99.90;;;;;;5079080;28;20044;-72
2023/07/23 12:21:58;;;;;;;13.15;8.05;;;16.70;99.90;;;;;;5077043;28;20503;-73
2023/07/23 12:24:28;;;;;;;12.02;7.40;;;16.70;99.90;;;;;;5076071;28;20043;-73
2023/07/23 12:26:56;;;;;;;13.65;7.80;;;16.80;99.90;;;;;;5071759;28;20650;-72
2023/07/23 12:29:24;;;;;;;11.75;7.70;;;16.80;99.90;;;;;;5072931;28;20051;-71
2023/07/23 12:32:13;;;;;;;11.70;8.23;;;16.90;99.90;;;;;;5075037;28;20386;-71
2023/07/23 12:34:40;;;;;;;13.05;7.75;;;16.90;99.90;;;;;;5077243;28;20490;-71
2023/07/23 12:37:07;;;;;;;12.02;7.22;;;17.00;99.90;;;;;;5077487;28;20085;-71